sensor_id;sensor_type;location;lat;lon;timestamp;P1;durP1;ratioP1;P2;durP2;ratioP2
12412;SDS011;13877;18.896;-99.222;2022-08-19T00:01:55;8.15;;;5.55;;
12412;SDS011;13877;18.896;-99.222;2022-08-19T00:04:24;10.20;;;5.03;;
12412;SDS011;13877;18.896;-99.222;2022-08-19T00:07:13;9.85;;;5.65;;
12412;SDS011;13877;18.896;-99.222;2022-08-19T00:09:59;11.48;;;5.00;;
12412;SDS011;13877;18.896;-99.222;2022-08-19T00:12:26;14.73;;;5.25;;
12412;SDS011;13877;18.896;-99.222;2022-08-19T00:15:06;7.13;;;4.18;;
12412;SDS011;13877;18.896;-99.222;2022-08-19T00:17:39;10.00;;;4.70;;
12412;SDS011;13877;18.896;-99.222;2022-08-19T00:20:08;8.80;;;4.47;;
12412;SDS011;13877;18.896;-99.222;2022-08-19T00:22:37;6.93;;;4.53;;
12412;SDS011;13877;18.896;-99.222;2022-08-19T00:25:07;10.88;;;4.88;;
12412;SDS011;13877;18.896;-99.222;2022-08-19T00:27:35;7.10;;;4.97;;
12412;SDS011;13877;18.896;-99.222;2022-08-19T00:30:02;13.35;;;5.10;;
12412;SDS011;13877;18.896;-99.222;2022-08-19T00:32:30;7.45;;;5.13;;
12412;SDS011;13877;18.896;-99.222;2022-08-19T00:35:00;11.95;;;5.20;;
12412;SDS011;13877;18.896;-99.222;2022-08-19T00:37:27;10.98;;;5.72;;
12412;SDS011;13877;18.896;-99.222;2022-08-19T00:39:54;9.27;;;5.80;;
12412;SDS011;13877;18.896;-99.222;2022-08-19T00:42:22;10.85;;;5.70;;
12412;SDS011;13877;18.896;-99.222;2022-08-19T00:44:49;10.20;;;5.93;;
12412;SDS011;13877;18.896;-99.222;2022-08-19T00:47:16;8.10;;;5.78;;
12412;SDS011;13877;18.896;-99.222;2022-08-19T00:49:45;12.15;;;6.40;;
12412;SDS011;13877;18.896;-99.222;2022-08-19T00:52:29;14.43;;;6.07;;
12412;SDS011;13877;18.896;-99.222;2022-08-19T00:55:03;12.27;;;7.10;;
12412;SDS011;13877;18.896;-99.222;2022-08-19T00:57:40;8.23;;;5.82;;
12412;SDS011;13877;18.896;-99.222;2022-08-19T01:00:29;11.32;;;6.20;;
12412;SDS011;13877;18.896;-99.222;2022-08-19T01:02:57;10.73;;;6.90;;
12412;SDS011;13877;18.896;-99.222;2022-08-19T01:05:26;9.25;;;6.78;;
12412;SDS011;13877;18.896;-99.222;2022-08-19T01:07:56;15.48;;;7.55;;
12412;SDS011;13877;18.896;-99.222;2022-08-19T01:10:26;16.45;;;7.28;;
12412;SDS011;13877;18.896;-99.222;2022-08-19T01:12:55;11.90;;;7.77;;
12412;SDS011;13877;18.896;-99.222;2022-08-19T01:15:25;15.32;;;8.52;;
12412;SDS011;13877;18.896;-99.222;2022-08-19T01:17:56;13.88;;;7.85;;
12412;SDS011;13877;18.896;-99.222;2022-08-19T01:20:25;11.63;;;6.60;;
12412;SDS011;13877;18.896;-99.222;2022-08-19T01:22:54;9.88;;;6.43;;
12412;SDS011;13877;18.896;-99.222;2022-08-19T01:25:28;12.40;;;8.07;;
12412;SDS011;13877;18.896;-99.222;2022-08-19T01:28:21;9.73;;;7.03;;
12412;SDS011;13877;18.896;-99.222;2022-08-19T01:30:53;13.73;;;7.28;;
12412;SDS011;13877;18.896;-99.222;2022-08-19T01:33:20;15.95;;;8.02;;
12412;SDS011;13877;18.896;-99.222;2022-08-19T01:35:48;13.30;;;6.70;;
12412;SDS011;13877;18.896;-99.222;2022-08-19T01:38:24;9.15;;;6.40;;
12412;SDS011;13877;18.896;-99.222;2022-08-19T01:40:54;13.23;;;6.03;;
12412;SDS011;13877;18.896;-99.222;2022-08-19T01:43:20;10.05;;;5.55;;
12412;SDS011;13877;18.896;-99.222;2022-08-19T01:45:47;13.48;;;5.05;;
12412;SDS011;13877;18.896;-99.222;2022-08-19T01:48:14;11.18;;;4.45;;
12412;SDS011;13877;18.896;-99.222;2022-08-19T01:50:42;7.65;;;4.88;;
12412;SDS011;13877;18.896;-99.222;2022-08-19T01:53:10;6.50;;;4.13;;
12412;SDS011;13877;18.896;-99.222;2022-08-19T01:55:38;10.27;;;4.40;;
12412;SDS011;13877;18.896;-99.222;2022-08-19T01:58:11;6.85;;;4.35;;
12412;SDS011;13877;18.896;-99.222;2022-08-19T02:00:44;11.55;;;4.00;;
12412;SDS011;13877;18.896;-99.222;2022-08-19T02:03:11;6.32;;;4.05;;
12412;SDS011;13877;18.896;-99.222;2022-08-19T02:05:41;9.45;;;3.78;;
12412;SDS011;13877;18.896;-99.222;2022-08-19T02:08:09;5.03;;;3.90;;
12412;SDS011;13877;18.896;-99.222;2022-08-19T02:10:41;7.10;;;4.20;;
12412;SDS011;13877;18.896;-99.222;2022-08-19T02:13:09;8.70;;;4.10;;
12412;SDS011;13877;18.896;-99.222;2022-08-19T02:15:37;16.65;;;5.35;;
12412;SDS011;13877;18.896;-99.222;2022-08-19T02:18:04;8.40;;;4.55;;
12412;SDS011;13877;18.896;-99.222;2022-08-19T02:20:31;12.02;;;5.10;;
12412;SDS011;13877;18.896;-99.222;2022-08-19T02:22:59;10.02;;;5.50;;
12412;SDS011;13877;18.896;-99.222;2022-08-19T02:25:26;12.18;;;5.32;;
12412;SDS011;13877;18.896;-99.222;2022-08-19T02:27:53;14.45;;;6.10;;
12412;SDS011;13877;18.896;-99.222;2022-08-19T02:30:20;11.63;;;5.45;;
12412;SDS011;13877;18.896;-99.222;2022-08-19T02:32:47;9.95;;;5.18;;
12412;SDS011;13877;18.896;-99.222;2022-08-19T02:35:14;11.85;;;5.97;;
12412;SDS011;13877;18.896;-99.222;2022-08-19T02:37:42;19.77;;;5.97;;
12412;SDS011;13877;18.896;-99.222;2022-08-19T02:40:29;9.80;;;5.68;;
12412;SDS011;13877;18.896;-99.222;2022-08-19T02:43:00;10.65;;;4.90;;
12412;SDS011;13877;18.896;-99.222;2022-08-19T02:45:35;13.40;;;5.32;;
12412;SDS011;13877;18.896;-99.222;2022-08-19T02:48:03;11.55;;;5.43;;
12412;SDS011;13877;18.896;-99.222;2022-08-19T02:50:31;12.25;;;5.93;;
12412;SDS011;13877;18.896;-99.222;2022-08-19T02:52:58;16.13;;;6.68;;
12412;SDS011;13877;18.896;-99.222;2022-08-19T02:55:24;22.98;;;12.20;;
12412;SDS011;13877;18.896;-99.222;2022-08-19T02:57:52;32.10;;;11.45;;
12412;SDS011;13877;18.896;-99.222;2022-08-19T03:00:18;26.65;;;12.60;;
12412;SDS011;13877;18.896;-99.222;2022-08-19T03:02:46;26.77;;;12.93;;
12412;SDS011;13877;18.896;-99.222;2022-08-19T03:05:14;28.73;;;14.13;;
12412;SDS011;13877;18.896;-99.222;2022-08-19T03:07:41;35.60;;;12.55;;
12412;SDS011;13877;18.896;-99.222;2022-08-19T03:10:08;32.05;;;13.10;;
12412;SDS011;13877;18.896;-99.222;2022-08-19T03:12:36;40.55;;;17.65;;
12412;SDS011;13877;18.896;-99.222;2022-08-19T03:15:05;43.92;;;18.02;;
12412;SDS011;13877;18.896;-99.222;2022-08-19T03:17:34;28.17;;;12.90;;
12412;SDS011;13877;18.896;-99.222;2022-08-19T03:20:01;26.52;;;6.45;;
12412;SDS011;13877;18.896;-99.222;2022-08-19T03:22:28;15.68;;;5.97;;
12412;SDS011;13877;18.896;-99.222;2022-08-19T03:24:55;11.60;;;3.92;;
12412;SDS011;13877;18.896;-99.222;2022-08-19T03:27:22;13.93;;;3.72;;
12412;SDS011;13877;18.896;-99.222;2022-08-19T03:29:49;8.75;;;3.58;;
12412;SDS011;13877;18.896;-99.222;2022-08-19T03:32:17;5.32;;;2.40;;
12412;SDS011;13877;18.896;-99.222;2022-08-19T03:34:44;9.13;;;2.85;;
12412;SDS011;13877;18.896;-99.222;2022-08-19T03:37:11;8.52;;;2.67;;
12412;SDS011;13877;18.896;-99.222;2022-08-19T03:39:38;5.88;;;2.58;;
12412;SDS011;13877;18.896;-99.222;2022-08-19T03:42:08;7.40;;;2.60;;
12412;SDS011;13877;18.896;-99.222;2022-08-19T03:44:35;3.80;;;2.28;;
12412;SDS011;13877;18.896;-99.222;2022-08-19T03:47:04;3.60;;;1.95;;
12412;SDS011;13877;18.896;-99.222;2022-08-19T03:49:31;7.10;;;2.35;;
12412;SDS011;13877;18.896;-99.222;2022-08-19T03:52:00;8.10;;;2.22;;
12412;SDS011;13877;18.896;-99.222;2022-08-19T03:54:31;6.07;;;2.17;;
12412;SDS011;13877;18.896;-99.222;2022-08-19T03:56:57;8.93;;;2.20;;
12412;SDS011;13877;18.896;-99.222;2022-08-19T03:59:27;3.63;;;2.20;;
12412;SDS011;13877;18.896;-99.222;2022-08-19T04:01:59;8.50;;;2.13;;
12412;SDS011;13877;18.896;-99.222;2022-08-19T04:04:49;9.00;;;2.60;;
12412;SDS011;13877;18.896;-99.222;2022-08-19T04:07:20;6.03;;;2.42;;
12412;SDS011;13877;18.896;-99.222;2022-08-19T04:09:47;9.38;;;2.50;;
12412;SDS011;13877;18.896;-99.222;2022-08-19T04:12:14;7.47;;;2.42;;
12412;SDS011;13877;18.896;-99.222;2022-08-19T04:14:41;7.05;;;2.40;;
12412;SDS011;13877;18.896;-99.222;2022-08-19T04:17:08;13.00;;;2.17;;
12412;SDS011;13877;18.896;-99.222;2022-08-19T04:19:35;6.93;;;2.97;;
12412;SDS011;13877;18.896;-99.222;2022-08-19T04:22:04;5.22;;;2.88;;
12412;SDS011;13877;18.896;-99.222;2022-08-19T04:24:34;5.35;;;3.03;;
12412;SDS011;13877;18.896;-99.222;2022-08-19T04:27:02;10.45;;;2.65;;
12412;SDS011;13877;18.896;-99.222;2022-08-19T04:29:31;5.22;;;3.00;;
12412;SDS011;13877;18.896;-99.222;2022-08-19T04:31:58;15.15;;;3.40;;
12412;SDS011;13877;18.896;-99.222;2022-08-19T04:34:26;8.00;;;2.97;;
12412;SDS011;13877;18.896;-99.222;2022-08-19T04:36:56;9.18;;;3.33;;
12412;SDS011;13877;18.896;-99.222;2022-08-19T04:39:28;7.35;;;3.15;;
12412;SDS011;13877;18.896;-99.222;2022-08-19T04:42:16;5.30;;;3.33;;
12412;SDS011;13877;18.896;-99.222;2022-08-19T04:45:03;9.30;;;3.70;;
12412;SDS011;13877;18.896;-99.222;2022-08-19T04:47:31;7.35;;;3.22;;
12412;SDS011;13877;18.896;-99.222;2022-08-19T04:49:58;7.63;;;2.80;;
12412;SDS011;13877;18.896;-99.222;2022-08-19T04:52:25;7.78;;;2.78;;
12412;SDS011;13877;18.896;-99.222;2022-08-19T04:54:52;5.65;;;3.25;;
12412;SDS011;13877;18.896;-99.222;2022-08-19T04:57:21;6.30;;;2.63;;
12412;SDS011;13877;18.896;-99.222;2022-08-19T04:59:48;4.22;;;2.03;;
12412;SDS011;13877;18.896;-99.222;2022-08-19T05:02:20;9.70;;;2.55;;
12412;SDS011;13877;18.896;-99.222;2022-08-19T05:04:55;6.53;;;2.58;;
12412;SDS011;13877;18.896;-99.222;2022-08-19T05:07:26;6.22;;;2.60;;
12412;SDS011;13877;18.896;-99.222;2022-08-19T05:09:53;4.10;;;2.30;;
12412;SDS011;13877;18.896;-99.222;2022-08-19T05:12:21;6.95;;;2.60;;
12412;SDS011;13877;18.896;-99.222;2022-08-19T05:14:47;7.47;;;2.45;;
12412;SDS011;13877;18.896;-99.222;2022-08-19T05:17:15;6.82;;;2.10;;
12412;SDS011;13877;18.896;-99.222;2022-08-19T05:19:42;5.07;;;2.17;;
12412;SDS011;13877;18.896;-99.222;2022-08-19T05:22:27;10.68;;;2.40;;
12412;SDS011;13877;18.896;-99.222;2022-08-19T05:25:04;4.45;;;2.20;;
12412;SDS011;13877;18.896;-99.222;2022-08-19T05:27:34;17.38;;;3.28;;
12412;SDS011;13877;18.896;-99.222;2022-08-19T05:30:01;9.95;;;2.75;;
12412;SDS011;13877;18.896;-99.222;2022-08-19T05:32:29;5.38;;;3.03;;
12412;SDS011;13877;18.896;-99.222;2022-08-19T05:34:56;8.02;;;3.92;;
12412;SDS011;13877;18.896;-99.222;2022-08-19T05:37:23;9.73;;;4.00;;
12412;SDS011;13877;18.896;-99.222;2022-08-19T05:39:53;7.10;;;4.03;;
12412;SDS011;13877;18.896;-99.222;2022-08-19T05:42:21;11.80;;;3.60;;
12412;SDS011;13877;18.896;-99.222;2022-08-19T05:44:48;11.27;;;4.35;;
12412;SDS011;13877;18.896;-99.222;2022-08-19T05:47:16;6.30;;;3.67;;
12412;SDS011;13877;18.896;-99.222;2022-08-19T05:49:45;7.03;;;3.30;;
12412;SDS011;13877;18.896;-99.222;2022-08-19T05:52:14;6.75;;;3.03;;
12412;SDS011;13877;18.896;-99.222;2022-08-19T05:54:41;7.53;;;3.38;;
12412;SDS011;13877;18.896;-99.222;2022-08-19T05:57:09;7.30;;;2.70;;
12412;SDS011;13877;18.896;-99.222;2022-08-19T05:59:36;5.18;;;3.03;;
12412;SDS011;13877;18.896;-99.222;2022-08-19T06:02:04;10.60;;;3.20;;
12412;SDS011;13877;18.896;-99.222;2022-08-19T06:04:32;6.15;;;2.92;;
12412;SDS011;13877;18.896;-99.222;2022-08-19T06:06:59;6.95;;;3.28;;
12412;SDS011;13877;18.896;-99.222;2022-08-19T06:09:27;5.47;;;2.72;;
12412;SDS011;13877;18.896;-99.222;2022-08-19T06:11:56;22.50;;;3.00;;
12412;SDS011;13877;18.896;-99.222;2022-08-19T06:14:29;6.78;;;1.95;;
12412;SDS011;13877;18.896;-99.222;2022-08-19T06:16:58;10.18;;;2.08;;
12412;SDS011;13877;18.896;-99.222;2022-08-19T06:19:27;4.57;;;1.85;;
12412;SDS011;13877;18.896;-99.222;2022-08-19T06:21:56;6.03;;;1.92;;
12412;SDS011;13877;18.896;-99.222;2022-08-19T06:24:24;8.00;;;2.28;;
12412;SDS011;13877;18.896;-99.222;2022-08-19T06:26:54;5.90;;;1.60;;
12412;SDS011;13877;18.896;-99.222;2022-08-19T06:29:24;3.10;;;1.58;;
12412;SDS011;13877;18.896;-99.222;2022-08-19T06:31:53;3.70;;;1.80;;
12412;SDS011;13877;18.896;-99.222;2022-08-19T06:34:22;3.25;;;1.83;;
12412;SDS011;13877;18.896;-99.222;2022-08-19T06:36:50;7.60;;;1.92;;
12412;SDS011;13877;18.896;-99.222;2022-08-19T06:39:22;3.10;;;2.05;;
12412;SDS011;13877;18.896;-99.222;2022-08-19T06:41:52;4.45;;;2.00;;
12412;SDS011;13877;18.896;-99.222;2022-08-19T06:44:22;4.85;;;2.22;;
12412;SDS011;13877;18.896;-99.222;2022-08-19T06:46:52;5.63;;;1.90;;
12412;SDS011;13877;18.896;-99.222;2022-08-19T06:49:20;2.60;;;1.77;;
12412;SDS011;13877;18.896;-99.222;2022-08-19T06:51:48;3.80;;;2.00;;
12412;SDS011;13877;18.896;-99.222;2022-08-19T06:54:17;4.50;;;2.10;;
12412;SDS011;13877;18.896;-99.222;2022-08-19T06:56:44;4.57;;;2.15;;
12412;SDS011;13877;18.896;-99.222;2022-08-19T06:59:13;6.22;;;2.13;;
12412;SDS011;13877;18.896;-99.222;2022-08-19T07:01:43;6.78;;;2.58;;
12412;SDS011;13877;18.896;-99.222;2022-08-19T07:04:13;4.70;;;1.83;;
12412;SDS011;13877;18.896;-99.222;2022-08-19T07:06:42;4.30;;;2.08;;
12412;SDS011;13877;18.896;-99.222;2022-08-19T07:09:10;9.15;;;2.00;;
12412;SDS011;13877;18.896;-99.222;2022-08-19T07:11:43;12.38;;;2.80;;
12412;SDS011;13877;18.896;-99.222;2022-08-19T07:14:12;4.28;;;2.08;;
12412;SDS011;13877;18.896;-99.222;2022-08-19T07:16:40;6.10;;;2.47;;
12412;SDS011;13877;18.896;-99.222;2022-08-19T07:19:06;6.63;;;2.47;;
12412;SDS011;13877;18.896;-99.222;2022-08-19T07:21:33;3.63;;;2.50;;
12412;SDS011;13877;18.896;-99.222;2022-08-19T07:24:02;7.25;;;2.80;;
12412;SDS011;13877;18.896;-99.222;2022-08-19T07:26:31;9.77;;;2.10;;
12412;SDS011;13877;18.896;-99.222;2022-08-19T07:29:05;12.27;;;2.80;;
12412;SDS011;13877;18.896;-99.222;2022-08-19T07:31:32;4.82;;;2.50;;
12412;SDS011;13877;18.896;-99.222;2022-08-19T07:34:06;5.45;;;2.70;;
12412;SDS011;13877;18.896;-99.222;2022-08-19T07:36:37;6.13;;;2.85;;
12412;SDS011;13877;18.896;-99.222;2022-08-19T07:39:07;5.22;;;2.90;;
12412;SDS011;13877;18.896;-99.222;2022-08-19T07:41:56;9.32;;;3.28;;
12412;SDS011;13877;18.896;-99.222;2022-08-19T07:44:25;8.82;;;2.90;;
12412;SDS011;13877;18.896;-99.222;2022-08-19T07:46:53;13.63;;;3.20;;
12412;SDS011;13877;18.896;-99.222;2022-08-19T07:49:22;7.10;;;2.72;;
12412;SDS011;13877;18.896;-99.222;2022-08-19T07:51:51;7.53;;;2.50;;
12412;SDS011;13877;18.896;-99.222;2022-08-19T07:54:21;11.98;;;3.20;;
12412;SDS011;13877;18.896;-99.222;2022-08-19T07:56:49;9.27;;;3.55;;
12412;SDS011;13877;18.896;-99.222;2022-08-19T07:59:35;6.88;;;3.17;;
12412;SDS011;13877;18.896;-99.222;2022-08-19T08:02:20;5.53;;;3.03;;
12412;SDS011;13877;18.896;-99.222;2022-08-19T08:04:48;4.05;;;2.75;;
12412;SDS011;13877;18.896;-99.222;2022-08-19T08:07:33;7.85;;;2.80;;
12412;SDS011;13877;18.896;-99.222;2022-08-19T08:10:18;6.00;;;3.15;;
12412;SDS011;13877;18.896;-99.222;2022-08-19T08:12:44;10.27;;;3.00;;
12412;SDS011;13877;18.896;-99.222;2022-08-19T08:15:13;4.70;;;3.15;;
12412;SDS011;13877;18.896;-99.222;2022-08-19T08:17:44;7.93;;;3.15;;
12412;SDS011;13877;18.896;-99.222;2022-08-19T08:20:11;10.43;;;3.78;;
12412;SDS011;13877;18.896;-99.222;2022-08-19T08:22:43;8.73;;;3.78;;
12412;SDS011;13877;18.896;-99.222;2022-08-19T08:25:29;5.28;;;3.22;;
12412;SDS011;13877;18.896;-99.222;2022-08-19T08:27:56;6.15;;;3.10;;
12412;SDS011;13877;18.896;-99.222;2022-08-19T08:30:26;4.93;;;3.33;;
12412;SDS011;13877;18.896;-99.222;2022-08-19T08:32:54;10.30;;;4.00;;
12412;SDS011;13877;18.896;-99.222;2022-08-19T08:35:22;8.15;;;3.83;;
12412;SDS011;13877;18.896;-99.222;2022-08-19T08:37:51;10.23;;;3.85;;
12412;SDS011;13877;18.896;-99.222;2022-08-19T08:40:23;9.73;;;3.55;;
12412;SDS011;13877;18.896;-99.222;2022-08-19T08:43:03;6.90;;;3.10;;
12412;SDS011;13877;18.896;-99.222;2022-08-19T08:45:42;10.23;;;2.97;;
12412;SDS011;13877;18.896;-99.222;2022-08-19T08:48:19;5.57;;;2.58;;
12412;SDS011;13877;18.896;-99.222;2022-08-19T08:51:07;5.40;;;2.70;;
12412;SDS011;13877;18.896;-99.222;2022-08-19T08:53:39;6.45;;;3.03;;
12412;SDS011;13877;18.896;-99.222;2022-08-19T08:56:08;4.55;;;2.72;;
12412;SDS011;13877;18.896;-99.222;2022-08-19T09:01:30;5.50;;;2.65;;
12412;SDS011;13877;18.896;-99.222;2022-08-19T09:04:15;6.78;;;2.65;;
12412;SDS011;13877;18.896;-99.222;2022-08-19T09:09:38;5.97;;;2.47;;
12412;SDS011;13877;18.896;-99.222;2022-08-19T09:14:58;6.65;;;3.83;;
12412;SDS011;13877;18.896;-99.222;2022-08-19T09:17:30;5.85;;;3.15;;
12412;SDS011;13877;18.896;-99.222;2022-08-19T09:22:32;4.72;;;2.95;;
12412;SDS011;13877;18.896;-99.222;2022-08-19T09:24:59;5.38;;;2.65;;
12412;SDS011;13877;18.896;-99.222;2022-08-19T09:27:26;7.57;;;2.58;;
12412;SDS011;13877;18.896;-99.222;2022-08-19T09:29:53;3.47;;;2.33;;
12412;SDS011;13877;18.896;-99.222;2022-08-19T09:32:21;14.60;;;2.45;;
12412;SDS011;13877;18.896;-99.222;2022-08-19T09:34:49;6.00;;;2.90;;
12412;SDS011;13877;18.896;-99.222;2022-08-19T09:37:20;4.10;;;2.38;;
12412;SDS011;13877;18.896;-99.222;2022-08-19T09:39:47;5.97;;;2.80;;
12412;SDS011;13877;18.896;-99.222;2022-08-19T09:42:14;11.50;;;3.30;;
12412;SDS011;13877;18.896;-99.222;2022-08-19T09:44:42;11.77;;;3.75;;
12412;SDS011;13877;18.896;-99.222;2022-08-19T09:47:10;7.63;;;3.58;;
12412;SDS011;13877;18.896;-99.222;2022-08-19T09:49:39;4.22;;;3.15;;
12412;SDS011;13877;18.896;-99.222;2022-08-19T09:52:10;9.75;;;3.45;;
12412;SDS011;13877;18.896;-99.222;2022-08-19T09:54:38;14.68;;;3.42;;
12412;SDS011;13877;18.896;-99.222;2022-08-19T09:57:05;9.15;;;3.15;;
12412;SDS011;13877;18.896;-99.222;2022-08-19T09:59:33;9.20;;;4.85;;
12412;SDS011;13877;18.896;-99.222;2022-08-19T10:02:00;8.57;;;4.03;;
12412;SDS011;13877;18.896;-99.222;2022-08-19T10:04:26;8.75;;;4.05;;
12412;SDS011;13877;18.896;-99.222;2022-08-19T10:07:14;13.48;;;4.10;;
12412;SDS011;13877;18.896;-99.222;2022-08-19T10:09:41;7.85;;;4.07;;
12412;SDS011;13877;18.896;-99.222;2022-08-19T10:12:08;14.15;;;4.57;;
12412;SDS011;13877;18.896;-99.222;2022-08-19T10:14:35;9.52;;;4.28;;
12412;SDS011;13877;18.896;-99.222;2022-08-19T10:17:02;11.02;;;4.35;;
12412;SDS011;13877;18.896;-99.222;2022-08-19T10:19:29;9.75;;;4.72;;
12412;SDS011;13877;18.896;-99.222;2022-08-19T10:22:05;13.52;;;4.80;;
12412;SDS011;13877;18.896;-99.222;2022-08-19T10:24:35;8.23;;;4.28;;
12412;SDS011;13877;18.896;-99.222;2022-08-19T10:27:02;7.85;;;3.42;;
12412;SDS011;13877;18.896;-99.222;2022-08-19T10:29:31;6.18;;;3.22;;
12412;SDS011;13877;18.896;-99.222;2022-08-19T10:32:00;4.80;;;3.33;;
12412;SDS011;13877;18.896;-99.222;2022-08-19T10:34:29;7.60;;;3.75;;
12412;SDS011;13877;18.896;-99.222;2022-08-19T10:36:56;7.38;;;3.85;;
12412;SDS011;13877;18.896;-99.222;2022-08-19T10:39:24;8.52;;;4.30;;
12412;SDS011;13877;18.896;-99.222;2022-08-19T10:41:53;8.25;;;3.55;;
12412;SDS011;13877;18.896;-99.222;2022-08-19T10:44:21;12.18;;;3.88;;
12412;SDS011;13877;18.896;-99.222;2022-08-19T10:46:49;8.60;;;3.90;;
12412;SDS011;13877;18.896;-99.222;2022-08-19T10:49:17;14.48;;;3.65;;
12412;SDS011;13877;18.896;-99.222;2022-08-19T10:51:49;14.18;;;3.60;;
12412;SDS011;13877;18.896;-99.222;2022-08-19T10:54:35;10.90;;;3.50;;
12412;SDS011;13877;18.896;-99.222;2022-08-19T10:57:20;5.72;;;3.63;;
12412;SDS011;13877;18.896;-99.222;2022-08-19T10:59:53;14.07;;;3.83;;
12412;SDS011;13877;18.896;-99.222;2022-08-19T11:02:21;11.85;;;4.50;;
12412;SDS011;13877;18.896;-99.222;2022-08-19T11:04:49;10.23;;;4.25;;
12412;SDS011;13877;18.896;-99.222;2022-08-19T11:07:17;13.85;;;4.05;;
12412;SDS011;13877;18.896;-99.222;2022-08-19T11:09:44;7.30;;;3.45;;
12412;SDS011;13877;18.896;-99.222;2022-08-19T11:12:12;5.05;;;3.47;;
12412;SDS011;13877;18.896;-99.222;2022-08-19T11:14:40;5.50;;;3.45;;
12412;SDS011;13877;18.896;-99.222;2022-08-19T11:17:07;8.05;;;3.70;;
12412;SDS011;13877;18.896;-99.222;2022-08-19T11:19:34;8.27;;;3.58;;
12412;SDS011;13877;18.896;-99.222;2022-08-19T11:22:01;8.25;;;3.92;;
12412;SDS011;13877;18.896;-99.222;2022-08-19T11:24:29;9.02;;;3.80;;
12412;SDS011;13877;18.896;-99.222;2022-08-19T11:27:00;13.93;;;3.38;;
12412;SDS011;13877;18.896;-99.222;2022-08-19T11:29:30;10.85;;;3.67;;
12412;SDS011;13877;18.896;-99.222;2022-08-19T11:31:58;7.20;;;3.22;;
12412;SDS011;13877;18.896;-99.222;2022-08-19T11:34:27;11.32;;;3.90;;
12412;SDS011;13877;18.896;-99.222;2022-08-19T11:36:54;13.07;;;3.38;;
12412;SDS011;13877;18.896;-99.222;2022-08-19T11:39:26;7.00;;;3.72;;
12412;SDS011;13877;18.896;-99.222;2022-08-19T11:41:57;7.73;;;3.67;;
12412;SDS011;13877;18.896;-99.222;2022-08-19T11:44:25;6.78;;;3.63;;
12412;SDS011;13877;18.896;-99.222;2022-08-19T11:46:53;10.30;;;3.70;;
12412;SDS011;13877;18.896;-99.222;2022-08-19T11:49:20;7.65;;;3.53;;
12412;SDS011;13877;18.896;-99.222;2022-08-19T11:51:47;6.10;;;3.25;;
12412;SDS011;13877;18.896;-99.222;2022-08-19T11:54:16;5.85;;;3.67;;
12412;SDS011;13877;18.896;-99.222;2022-08-19T11:56:44;6.13;;;3.10;;
12412;SDS011;13877;18.896;-99.222;2022-08-19T11:59:11;8.70;;;4.07;;
12412;SDS011;13877;18.896;-99.222;2022-08-19T12:01:39;9.90;;;3.65;;
12412;SDS011;13877;18.896;-99.222;2022-08-19T12:04:07;7.30;;;3.63;;
12412;SDS011;13877;18.896;-99.222;2022-08-19T12:06:37;12.75;;;3.88;;
12412;SDS011;13877;18.896;-99.222;2022-08-19T12:09:06;4.93;;;3.60;;
12412;SDS011;13877;18.896;-99.222;2022-08-19T12:11:35;10.60;;;3.63;;
12412;SDS011;13877;18.896;-99.222;2022-08-19T12:14:03;11.18;;;4.60;;
12412;SDS011;13877;18.896;-99.222;2022-08-19T12:16:31;7.15;;;3.95;;
12412;SDS011;13877;18.896;-99.222;2022-08-19T12:18:58;9.02;;;4.18;;
12412;SDS011;13877;18.896;-99.222;2022-08-19T12:23:58;9.95;;;4.38;;
12412;SDS011;13877;18.896;-99.222;2022-08-19T12:26:26;6.60;;;3.97;;
12412;SDS011;13877;18.896;-99.222;2022-08-19T12:28:54;8.48;;;4.20;;
12412;SDS011;13877;18.896;-99.222;2022-08-19T12:31:21;9.18;;;4.47;;
12412;SDS011;13877;18.896;-99.222;2022-08-19T12:33:49;14.98;;;5.45;;
12412;SDS011;13877;18.896;-99.222;2022-08-19T12:36:17;8.25;;;5.25;;
12412;SDS011;13877;18.896;-99.222;2022-08-19T12:38:44;10.32;;;4.40;;
12412;SDS011;13877;18.896;-99.222;2022-08-19T12:41:13;12.80;;;4.28;;
12412;SDS011;13877;18.896;-99.222;2022-08-19T12:43:44;7.07;;;3.95;;
12412;SDS011;13877;18.896;-99.222;2022-08-19T12:46:12;12.30;;;3.90;;
12412;SDS011;13877;18.896;-99.222;2022-08-19T12:48:40;19.65;;;4.70;;
12412;SDS011;13877;18.896;-99.222;2022-08-19T12:51:17;13.63;;;4.47;;
12412;SDS011;13877;18.896;-99.222;2022-08-19T12:53:47;11.63;;;4.90;;
12412;SDS011;13877;18.896;-99.222;2022-08-19T12:56:15;8.65;;;4.65;;
12412;SDS011;13877;18.896;-99.222;2022-08-19T12:58:44;13.27;;;5.18;;
12412;SDS011;13877;18.896;-99.222;2022-08-19T13:01:12;9.00;;;4.38;;
12412;SDS011;13877;18.896;-99.222;2022-08-19T13:03:41;10.43;;;5.38;;
12412;SDS011;13877;18.896;-99.222;2022-08-19T13:06:10;15.95;;;5.95;;
12412;SDS011;13877;18.896;-99.222;2022-08-19T13:08:37;22.00;;;5.45;;
12412;SDS011;13877;18.896;-99.222;2022-08-19T13:11:12;13.25;;;6.00;;
12412;SDS011;13877;18.896;-99.222;2022-08-19T13:13:44;13.93;;;5.82;;
12412;SDS011;13877;18.896;-99.222;2022-08-19T13:16:13;18.30;;;5.47;;
12412;SDS011;13877;18.896;-99.222;2022-08-19T13:18:41;26.52;;;5.20;;
12412;SDS011;13877;18.896;-99.222;2022-08-19T13:21:10;14.55;;;5.93;;
12412;SDS011;13877;18.896;-99.222;2022-08-19T13:23:38;19.23;;;5.45;;
12412;SDS011;13877;18.896;-99.222;2022-08-19T13:26:07;20.23;;;5.65;;
12412;SDS011;13877;18.896;-99.222;2022-08-19T13:28:35;17.33;;;5.93;;
12412;SDS011;13877;18.896;-99.222;2022-08-19T13:31:21;14.10;;;5.55;;
12412;SDS011;13877;18.896;-99.222;2022-08-19T13:34:30;20.48;;;6.10;;
12412;SDS011;13877;18.896;-99.222;2022-08-19T13:37:01;17.05;;;6.22;;
12412;SDS011;13877;18.896;-99.222;2022-08-19T13:39:30;12.30;;;5.13;;
12412;SDS011;13877;18.896;-99.222;2022-08-19T13:41:59;25.23;;;4.50;;
12412;SDS011;13877;18.896;-99.222;2022-08-19T13:44:26;27.70;;;5.10;;
12412;SDS011;13877;18.896;-99.222;2022-08-19T13:47:00;17.23;;;5.35;;
12412;SDS011;13877;18.896;-99.222;2022-08-19T13:49:33;29.45;;;5.45;;
12412;SDS011;13877;18.896;-99.222;2022-08-19T13:52:02;16.90;;;5.38;;
12412;SDS011;13877;18.896;-99.222;2022-08-19T13:54:31;10.50;;;5.70;;
12412;SDS011;13877;18.896;-99.222;2022-08-19T13:56:58;17.33;;;4.75;;
12412;SDS011;13877;18.896;-99.222;2022-08-19T13:59:25;23.58;;;5.75;;
12412;SDS011;13877;18.896;-99.222;2022-08-19T14:01:51;18.15;;;5.32;;
12412;SDS011;13877;18.896;-99.222;2022-08-19T14:04:19;15.32;;;6.88;;
12412;SDS011;13877;18.896;-99.222;2022-08-19T14:06:46;21.73;;;6.35;;
12412;SDS011;13877;18.896;-99.222;2022-08-19T14:09:12;18.75;;;7.30;;
12412;SDS011;13877;18.896;-99.222;2022-08-19T14:11:39;17.83;;;5.85;;
12412;SDS011;13877;18.896;-99.222;2022-08-19T14:14:06;13.38;;;6.13;;
12412;SDS011;13877;18.896;-99.222;2022-08-19T14:16:33;13.43;;;6.00;;
12412;SDS011;13877;18.896;-99.222;2022-08-19T14:19:00;18.95;;;6.05;;
12412;SDS011;13877;18.896;-99.222;2022-08-19T14:21:27;17.60;;;6.60;;
12412;SDS011;13877;18.896;-99.222;2022-08-19T14:23:54;20.00;;;6.35;;
12412;SDS011;13877;18.896;-99.222;2022-08-19T14:26:21;18.10;;;6.63;;
12412;SDS011;13877;18.896;-99.222;2022-08-19T14:28:49;20.88;;;6.35;;
12412;SDS011;13877;18.896;-99.222;2022-08-19T14:31:17;11.38;;;6.13;;
12412;SDS011;13877;18.896;-99.222;2022-08-19T14:33:45;30.23;;;6.70;;
12412;SDS011;13877;18.896;-99.222;2022-08-19T14:36:13;18.77;;;6.70;;
12412;SDS011;13877;18.896;-99.222;2022-08-19T14:38:40;17.30;;;6.50;;
12412;SDS011;13877;18.896;-99.222;2022-08-19T14:41:15;22.33;;;6.43;;
12412;SDS011;13877;18.896;-99.222;2022-08-19T14:43:46;27.10;;;7.25;;
12412;SDS011;13877;18.896;-99.222;2022-08-19T14:46:16;26.17;;;7.00;;